sensor_id;sensor_type;location;lat;lon;timestamp;P1;durP1;ratioP1;P2;durP2;ratioP2
43048;SDS011;28673;44.412;11.918;2023-05-13T00:01:24;14.70;;;9.75;;
43048;SDS011;28673;44.412;11.918;2023-05-13T00:03:50;12.00;;;9.55;;
43048;SDS011;28673;44.412;11.918;2023-05-13T00:06:16;13.40;;;9.73;;
43048;SDS011;28673;44.412;11.918;2023-05-13T00:08:41;13.75;;;10.40;;
43048;SDS011;28673;44.412;11.918;2023-05-13T00:11:07;13.38;;;10.00;;
43048;SDS011;28673;44.412;11.918;2023-05-13T00:13:33;11.68;;;8.60;;
43048;SDS011;28673;44.412;11.918;2023-05-13T00:15:59;13.20;;;9.90;;
43048;SDS011;28673;44.412;11.918;2023-05-13T00:18:25;12.50;;;9.20;;
43048;SDS011;28673;44.412;11.918;2023-05-13T00:20:51;10.55;;;9.45;;
43048;SDS011;28673;44.412;11.918;2023-05-13T00:23:17;12.27;;;8.80;;
43048;SDS011;28673;44.412;11.918;2023-05-13T00:25:43;10.23;;;8.73;;
43048;SDS011;28673;44.412;11.918;2023-05-13T00:28:09;11.98;;;8.07;;
43048;SDS011;28673;44.412;11.918;2023-05-13T00:30:37;12.25;;;8.57;;
43048;SDS011;28673;44.412;11.918;2023-05-13T00:33:06;15.55;;;9.32;;
43048;SDS011;28673;44.412;11.918;2023-05-13T00:35:32;13.10;;;8.50;;
43048;SDS011;28673;44.412;11.918;2023-05-13T00:37:58;10.38;;;7.95;;
43048;SDS011;28673;44.412;11.918;2023-05-13T00:40:24;13.63;;;7.88;;
43048;SDS011;28673;44.412;11.918;2023-05-13T00:42:50;15.00;;;10.52;;
43048;SDS011;28673;44.412;11.918;2023-05-13T00:45:16;11.77;;;10.30;;
43048;SDS011;28673;44.412;11.918;2023-05-13T00:47:42;13.07;;;9.80;;
43048;SDS011;28673;44.412;11.918;2023-05-13T00:50:09;13.98;;;10.93;;
43048;SDS011;28673;44.412;11.918;2023-05-13T00:52:39;11.15;;;9.88;;
43048;SDS011;28673;44.412;11.918;2023-05-13T00:55:06;12.47;;;9.93;;
43048;SDS011;28673;44.412;11.918;2023-05-13T00:57:34;18.33;;;9.25;;
43048;SDS011;28673;44.412;11.918;2023-05-13T01:00:00;12.88;;;8.75;;
43048;SDS011;28673;44.412;11.918;2023-05-13T01:02:36;13.43;;;8.75;;
43048;SDS011;28673;44.412;11.918;2023-05-13T01:12:57;19.77;;;13.15;;
43048;SDS011;28673;44.412;11.918;2023-05-13T01:15:25;18.20;;;12.40;;
43048;SDS011;28673;44.412;11.918;2023-05-13T01:17:54;18.08;;;12.02;;
43048;SDS011;28673;44.412;11.918;2023-05-13T01:20:22;17.95;;;12.45;;
43048;SDS011;28673;44.412;11.918;2023-05-13T01:22:48;21.65;;;13.15;;
43048;SDS011;28673;44.412;11.918;2023-05-13T01:25:15;18.95;;;14.15;;
43048;SDS011;28673;44.412;11.918;2023-05-13T01:27:41;22.67;;;13.57;;
43048;SDS011;28673;44.412;11.918;2023-05-13T01:30:08;20.75;;;13.13;;
43048;SDS011;28673;44.412;11.918;2023-05-13T01:32:36;18.45;;;13.65;;
43048;SDS011;28673;44.412;11.918;2023-05-13T01:35:02;24.02;;;16.80;;
43048;SDS011;28673;44.412;11.918;2023-05-13T01:37:31;27.17;;;14.75;;
43048;SDS011;28673;44.412;11.918;2023-05-13T01:39:57;21.67;;;13.30;;
43048;SDS011;28673;44.412;11.918;2023-05-13T01:42:23;17.13;;;13.43;;
43048;SDS011;28673;44.412;11.918;2023-05-13T01:44:52;22.40;;;13.93;;
43048;SDS011;28673;44.412;11.918;2023-05-13T01:47:18;18.92;;;14.30;;
43048;SDS011;28673;44.412;11.918;2023-05-13T01:49:43;17.52;;;14.35;;
43048;SDS011;28673;44.412;11.918;2023-05-13T01:52:10;18.70;;;14.70;;
43048;SDS011;28673;44.412;11.918;2023-05-13T01:54:36;20.48;;;14.38;;
43048;SDS011;28673;44.412;11.918;2023-05-13T01:57:07;27.35;;;15.38;;
43048;SDS011;28673;44.412;11.918;2023-05-13T01:59:33;22.30;;;15.85;;
43048;SDS011;28673;44.412;11.918;2023-05-13T02:01:59;22.55;;;15.63;;
43048;SDS011;28673;44.412;11.918;2023-05-13T02:04:25;23.27;;;16.13;;
43048;SDS011;28673;44.412;11.918;2023-05-13T02:06:52;32.67;;;19.15;;
43048;SDS011;28673;44.412;11.918;2023-05-13T02:09:18;27.98;;;17.73;;
43048;SDS011;28673;44.412;11.918;2023-05-13T02:11:44;31.85;;;17.48;;
43048;SDS011;28673;44.412;11.918;2023-05-13T02:14:11;29.52;;;18.10;;
43048;SDS011;28673;44.412;11.918;2023-05-13T02:16:36;39.45;;;22.02;;
43048;SDS011;28673;44.412;11.918;2023-05-13T02:19:04;43.55;;;22.27;;
43048;SDS011;28673;44.412;11.918;2023-05-13T02:21:31;43.00;;;22.95;;
43048;SDS011;28673;44.412;11.918;2023-05-13T02:23:56;46.03;;;23.25;;
43048;SDS011;28673;44.412;11.918;2023-05-13T02:26:22;57.85;;;23.23;;
43048;SDS011;28673;44.412;11.918;2023-05-13T02:28:48;54.33;;;24.70;;
43048;SDS011;28673;44.412;11.918;2023-05-13T02:31:14;67.35;;;25.02;;
43048;SDS011;28673;44.412;11.918;2023-05-13T02:33:42;71.82;;;27.55;;
43048;SDS011;28673;44.412;11.918;2023-05-13T02:36:07;65.57;;;27.40;;
43048;SDS011;28673;44.412;11.918;2023-05-13T02:38:35;64.88;;;26.92;;
43048;SDS011;28673;44.412;11.918;2023-05-13T02:41:02;64.13;;;27.13;;
43048;SDS011;28673;44.412;11.918;2023-05-13T02:43:29;72.35;;;27.58;;
43048;SDS011;28673;44.412;11.918;2023-05-13T02:46:01;59.13;;;26.58;;
43048;SDS011;28673;44.412;11.918;2023-05-13T02:48:28;53.53;;;24.98;;
43048;SDS011;28673;44.412;11.918;2023-05-13T02:50:54;42.63;;;23.48;;
43048;SDS011;28673;44.412;11.918;2023-05-13T02:53:20;49.80;;;22.25;;
43048;SDS011;28673;44.412;11.918;2023-05-13T02:55:53;52.30;;;22.83;;
43048;SDS011;28673;44.412;11.918;2023-05-13T02:58:22;52.60;;;24.13;;
43048;SDS011;28673;44.412;11.918;2023-05-13T03:00:49;53.30;;;24.80;;
43048;SDS011;28673;44.412;11.918;2023-05-13T03:03:14;45.97;;;23.15;;
43048;SDS011;28673;44.412;11.918;2023-05-13T03:05:40;93.43;;;26.25;;
43048;SDS011;28673;44.412;11.918;2023-05-13T03:08:06;55.30;;;23.73;;
43048;SDS011;28673;44.412;11.918;2023-05-13T03:10:32;57.17;;;23.77;;
43048;SDS011;28673;44.412;11.918;2023-05-13T03:12:58;50.00;;;24.83;;
43048;SDS011;28673;44.412;11.918;2023-05-13T03:15:24;54.47;;;24.58;;
43048;SDS011;28673;44.412;11.918;2023-05-13T03:17:50;50.55;;;23.38;;
43048;SDS011;28673;44.412;11.918;2023-05-13T03:20:18;53.83;;;22.90;;
43048;SDS011;28673;44.412;11.918;2023-05-13T03:22:44;52.92;;;22.58;;
43048;SDS011;28673;44.412;11.918;2023-05-13T03:25:10;53.55;;;22.65;;
43048;SDS011;28673;44.412;11.918;2023-05-13T03:27:45;48.53;;;21.83;;
43048;SDS011;28673;44.412;11.918;2023-05-13T03:30:11;51.78;;;22.77;;
43048;SDS011;28673;44.412;11.918;2023-05-13T03:32:45;45.67;;;19.35;;
43048;SDS011;28673;44.412;11.918;2023-05-13T03:35:11;58.17;;;21.95;;
43048;SDS011;28673;44.412;11.918;2023-05-13T03:37:37;48.10;;;22.23;;
43048;SDS011;28673;44.412;11.918;2023-05-13T03:40:05;59.67;;;24.58;;
43048;SDS011;28673;44.412;11.918;2023-05-13T03:42:32;59.20;;;23.23;;
43048;SDS011;28673;44.412;11.918;2023-05-13T03:45:01;58.47;;;24.33;;
43048;SDS011;28673;44.412;11.918;2023-05-13T03:47:27;60.22;;;24.13;;
43048;SDS011;28673;44.412;11.918;2023-05-13T03:49:57;59.50;;;23.27;;
43048;SDS011;28673;44.412;11.918;2023-05-13T03:52:24;55.15;;;24.42;;
43048;SDS011;28673;44.412;11.918;2023-05-13T03:54:49;55.47;;;24.77;;
43048;SDS011;28673;44.412;11.918;2023-05-13T03:57:15;55.60;;;23.35;;
43048;SDS011;28673;44.412;11.918;2023-05-13T03:59:41;60.58;;;24.95;;
43048;SDS011;28673;44.412;11.918;2023-05-13T04:02:07;63.13;;;25.38;;
43048;SDS011;28673;44.412;11.918;2023-05-13T04:04:33;53.65;;;22.40;;
43048;SDS011;28673;44.412;11.918;2023-05-13T04:06:59;64.10;;;24.67;;
43048;SDS011;28673;44.412;11.918;2023-05-13T04:09:25;63.00;;;24.02;;
43048;SDS011;28673;44.412;11.918;2023-05-13T04:11:51;58.80;;;22.92;;
43048;SDS011;28673;44.412;11.918;2023-05-13T04:14:16;54.50;;;24.60;;
43048;SDS011;28673;44.412;11.918;2023-05-13T04:16:42;53.03;;;22.83;;
43048;SDS011;28673;44.412;11.918;2023-05-13T04:19:08;59.92;;;23.55;;
43048;SDS011;28673;44.412;11.918;2023-05-13T04:21:34;49.55;;;22.92;;
43048;SDS011;28673;44.412;11.918;2023-05-13T04:24:00;50.55;;;22.88;;
43048;SDS011;28673;44.412;11.918;2023-05-13T04:26:26;54.70;;;22.25;;
43048;SDS011;28673;44.412;11.918;2023-05-13T04:28:52;61.10;;;24.13;;
43048;SDS011;28673;44.412;11.918;2023-05-13T04:31:17;57.83;;;22.40;;
43048;SDS011;28673;44.412;11.918;2023-05-13T04:33:44;51.05;;;22.52;;
43048;SDS011;28673;44.412;11.918;2023-05-13T04:36:10;50.03;;;21.80;;
43048;SDS011;28673;44.412;11.918;2023-05-13T04:38:36;43.35;;;20.65;;
43048;SDS011;28673;44.412;11.918;2023-05-13T04:41:03;54.28;;;22.20;;
43048;SDS011;28673;44.412;11.918;2023-05-13T04:43:35;68.03;;;23.25;;
43048;SDS011;28673;44.412;11.918;2023-05-13T04:46:01;56.60;;;23.00;;
43048;SDS011;28673;44.412;11.918;2023-05-13T04:48:27;54.75;;;22.83;;
43048;SDS011;28673;44.412;11.918;2023-05-13T04:50:53;64.07;;;23.52;;
43048;SDS011;28673;44.412;11.918;2023-05-13T04:53:20;54.65;;;23.40;;
43048;SDS011;28673;44.412;11.918;2023-05-13T04:55:47;50.25;;;21.35;;
43048;SDS011;28673;44.412;11.918;2023-05-13T04:58:13;54.67;;;21.40;;
43048;SDS011;28673;44.412;11.918;2023-05-13T05:00:40;57.33;;;22.65;;
43048;SDS011;28673;44.412;11.918;2023-05-13T05:03:05;56.88;;;23.33;;
43048;SDS011;28673;44.412;11.918;2023-05-13T05:05:32;58.22;;;22.27;;
43048;SDS011;28673;44.412;11.918;2023-05-13T05:07:58;54.25;;;22.63;;
43048;SDS011;28673;44.412;11.918;2023-05-13T05:10:24;51.20;;;22.73;;
43048;SDS011;28673;44.412;11.918;2023-05-13T05:12:54;49.07;;;23.07;;
43048;SDS011;28673;44.412;11.918;2023-05-13T05:15:21;58.40;;;22.13;;
43048;SDS011;28673;44.412;11.918;2023-05-13T05:17:51;52.58;;;21.58;;
43048;SDS011;28673;44.412;11.918;2023-05-13T05:20:17;62.15;;;23.08;;
43048;SDS011;28673;44.412;11.918;2023-05-13T05:22:45;59.83;;;23.73;;
43048;SDS011;28673;44.412;11.918;2023-05-13T05:25:11;64.88;;;24.30;;
43048;SDS011;28673;44.412;11.918;2023-05-13T05:27:37;56.60;;;23.88;;
43048;SDS011;28673;44.412;11.918;2023-05-13T05:30:03;56.72;;;22.98;;
43048;SDS011;28673;44.412;11.918;2023-05-13T05:32:32;55.83;;;23.48;;
43048;SDS011;28673;44.412;11.918;2023-05-13T05:35:00;53.03;;;24.58;;
43048;SDS011;28673;44.412;11.918;2023-05-13T05:37:27;63.08;;;24.25;;
43048;SDS011;28673;44.412;11.918;2023-05-13T05:39:54;58.35;;;26.27;;
43048;SDS011;28673;44.412;11.918;2023-05-13T05:42:20;61.03;;;25.23;;
43048;SDS011;28673;44.412;11.918;2023-05-13T05:44:46;62.03;;;26.40;;
43048;SDS011;28673;44.412;11.918;2023-05-13T05:47:12;62.97;;;24.25;;
43048;SDS011;28673;44.412;11.918;2023-05-13T05:49:38;51.38;;;23.48;;
43048;SDS011;28673;44.412;11.918;2023-05-13T05:52:04;55.13;;;25.45;;
43048;SDS011;28673;44.412;11.918;2023-05-13T05:54:31;52.25;;;22.35;;
43048;SDS011;28673;44.412;11.918;2023-05-13T05:56:57;61.08;;;24.67;;
43048;SDS011;28673;44.412;11.918;2023-05-13T05:59:23;60.25;;;25.35;;
43048;SDS011;28673;44.412;11.918;2023-05-13T06:01:49;63.40;;;24.20;;
43048;SDS011;28673;44.412;11.918;2023-05-13T06:04:15;52.67;;;23.15;;
43048;SDS011;28673;44.412;11.918;2023-05-13T06:06:41;54.17;;;25.40;;
43048;SDS011;28673;44.412;11.918;2023-05-13T06:09:07;53.35;;;25.00;;
43048;SDS011;28673;44.412;11.918;2023-05-13T06:11:33;55.45;;;24.63;;
43048;SDS011;28673;44.412;11.918;2023-05-13T06:13:59;59.05;;;25.83;;
43048;SDS011;28673;44.412;11.918;2023-05-13T06:16:25;54.13;;;24.05;;
43048;SDS011;28673;44.412;11.918;2023-05-13T06:18:51;54.05;;;24.80;;
43048;SDS011;28673;44.412;11.918;2023-05-13T06:21:18;53.22;;;24.10;;
43048;SDS011;28673;44.412;11.918;2023-05-13T06:23:47;61.25;;;25.83;;
43048;SDS011;28673;44.412;11.918;2023-05-13T06:26:13;53.47;;;25.33;;
43048;SDS011;28673;44.412;11.918;2023-05-13T06:28:39;51.72;;;23.85;;
43048;SDS011;28673;44.412;11.918;2023-05-13T06:31:05;58.15;;;22.52;;
43048;SDS011;28673;44.412;11.918;2023-05-13T06:33:31;62.08;;;25.13;;
43048;SDS011;28673;44.412;11.918;2023-05-13T06:35:57;54.38;;;25.08;;
43048;SDS011;28673;44.412;11.918;2023-05-13T06:38:24;54.20;;;23.75;;
43048;SDS011;28673;44.412;11.918;2023-05-13T06:40:54;48.78;;;22.88;;
43048;SDS011;28673;44.412;11.918;2023-05-13T06:43:27;52.78;;;23.27;;
43048;SDS011;28673;44.412;11.918;2023-05-13T06:45:56;48.67;;;23.83;;
43048;SDS011;28673;44.412;11.918;2023-05-13T06:48:23;56.35;;;23.27;;
43048;SDS011;28673;44.412;11.918;2023-05-13T06:50:49;38.97;;;21.30;;
43048;SDS011;28673;44.412;11.918;2023-05-13T06:53:15;44.53;;;22.02;;
43048;SDS011;28673;44.412;11.918;2023-05-13T06:55:41;44.75;;;21.38;;
43048;SDS011;28673;44.412;11.918;2023-05-13T06:58:07;41.25;;;18.00;;
43048;SDS011;28673;44.412;11.918;2023-05-13T07:00:37;37.75;;;17.55;;
43048;SDS011;28673;44.412;11.918;2023-05-13T07:03:07;40.72;;;20.50;;
43048;SDS011;28673;44.412;11.918;2023-05-13T07:05:34;41.78;;;18.80;;
43048;SDS011;28673;44.412;11.918;2023-05-13T07:08:00;50.45;;;19.05;;
43048;SDS011;28673;44.412;11.918;2023-05-13T07:10:31;34.87;;;17.93;;
43048;SDS011;28673;44.412;11.918;2023-05-13T07:12:58;34.75;;;17.45;;
43048;SDS011;28673;44.412;11.918;2023-05-13T07:15:27;34.47;;;18.92;;
43048;SDS011;28673;44.412;11.918;2023-05-13T07:17:53;29.80;;;15.48;;
43048;SDS011;28673;44.412;11.918;2023-05-13T07:20:19;29.45;;;14.70;;
43048;SDS011;28673;44.412;11.918;2023-05-13T07:22:49;29.33;;;14.90;;
43048;SDS011;28673;44.412;11.918;2023-05-13T07:25:15;31.10;;;15.73;;
43048;SDS011;28673;44.412;11.918;2023-05-13T07:27:42;29.70;;;15.70;;
43048;SDS011;28673;44.412;11.918;2023-05-13T07:30:14;28.00;;;15.20;;
43048;SDS011;28673;44.412;11.918;2023-05-13T07:32:40;30.77;;;17.17;;
43048;SDS011;28673;44.412;11.918;2023-05-13T07:35:06;32.65;;;17.10;;
43048;SDS011;28673;44.412;11.918;2023-05-13T07:37:33;35.47;;;15.73;;
43048;SDS011;28673;44.412;11.918;2023-05-13T07:40:01;27.85;;;15.25;;
43048;SDS011;28673;44.412;11.918;2023-05-13T07:42:28;32.08;;;15.52;;
43048;SDS011;28673;44.412;11.918;2023-05-13T07:44:54;29.83;;;15.13;;
43048;SDS011;28673;44.412;11.918;2023-05-13T07:47:20;24.00;;;14.35;;
43048;SDS011;28673;44.412;11.918;2023-05-13T07:49:46;26.27;;;15.63;;
43048;SDS011;28673;44.412;11.918;2023-05-13T07:52:12;25.45;;;13.85;;
43048;SDS011;28673;44.412;11.918;2023-05-13T07:54:37;23.50;;;14.10;;
43048;SDS011;28673;44.412;11.918;2023-05-13T07:57:03;22.58;;;13.60;;
43048;SDS011;28673;44.412;11.918;2023-05-13T07:59:29;20.40;;;11.88;;
43048;SDS011;28673;44.412;11.918;2023-05-13T08:01:55;19.33;;;11.63;;
43048;SDS011;28673;44.412;11.918;2023-05-13T08:04:21;19.83;;;12.25;;
43048;SDS011;28673;44.412;11.918;2023-05-13T08:06:47;26.05;;;12.90;;
43048;SDS011;28673;44.412;11.918;2023-05-13T08:09:13;23.17;;;13.30;;
43048;SDS011;28673;44.412;11.918;2023-05-13T08:11:39;22.92;;;14.02;;
43048;SDS011;28673;44.412;11.918;2023-05-13T08:14:05;21.70;;;12.77;;
43048;SDS011;28673;44.412;11.918;2023-05-13T08:16:33;19.98;;;12.20;;
43048;SDS011;28673;44.412;11.918;2023-05-13T08:19:00;27.15;;;12.55;;
43048;SDS011;28673;44.412;11.918;2023-05-13T08:21:26;22.90;;;12.32;;
43048;SDS011;28673;44.412;11.918;2023-05-13T08:23:52;20.05;;;12.23;;
43048;SDS011;28673;44.412;11.918;2023-05-13T08:26:18;15.20;;;10.95;;
43048;SDS011;28673;44.412;11.918;2023-05-13T08:28:44;16.85;;;11.35;;
43048;SDS011;28673;44.412;11.918;2023-05-13T08:31:13;22.20;;;11.65;;
43048;SDS011;28673;44.412;11.918;2023-05-13T08:33:40;25.15;;;10.48;;
43048;SDS011;28673;44.412;11.918;2023-05-13T08:36:07;14.98;;;9.98;;
43048;SDS011;28673;44.412;11.918;2023-05-13T08:38:33;17.05;;;9.00;;
43048;SDS011;28673;44.412;11.918;2023-05-13T08:41:02;21.33;;;10.05;;
43048;SDS011;28673;44.412;11.918;2023-05-13T08:43:29;12.88;;;8.48;;
43048;SDS011;28673;44.412;11.918;2023-05-13T08:45:58;15.30;;;8.25;;
43048;SDS011;28673;44.412;11.918;2023-05-13T08:48:28;19.90;;;9.02;;
43048;SDS011;28673;44.412;11.918;2023-05-13T08:50:56;18.33;;;9.48;;
43048;SDS011;28673;44.412;11.918;2023-05-13T08:53:23;12.77;;;6.47;;
43048;SDS011;28673;44.412;11.918;2023-05-13T08:55:50;8.93;;;5.80;;
43048;SDS011;28673;44.412;11.918;2023-05-13T08:58:16;15.93;;;7.70;;
43048;SDS011;28673;44.412;11.918;2023-05-13T09:00:42;10.70;;;6.57;;
43048;SDS011;28673;44.412;11.918;2023-05-13T09:03:08;8.55;;;5.28;;
43048;SDS011;28673;44.412;11.918;2023-05-13T09:05:35;9.30;;;5.47;;
43048;SDS011;28673;44.412;11.918;2023-05-13T09:08:10;7.88;;;5.97;;
43048;SDS011;28673;44.412;11.918;2023-05-13T09:10:36;13.50;;;5.38;;
43048;SDS011;28673;44.412;11.918;2023-05-13T09:13:02;8.80;;;5.53;;
43048;SDS011;28673;44.412;11.918;2023-05-13T09:15:29;7.78;;;4.55;;
43048;SDS011;28673;44.412;11.918;2023-05-13T09:20:30;8.38;;;4.88;;
43048;SDS011;28673;44.412;11.918;2023-05-13T09:23:08;10.27;;;4.93;;
43048;SDS011;28673;44.412;11.918;2023-05-13T09:25:37;8.85;;;4.35;;
43048;SDS011;28673;44.412;11.918;2023-05-13T09:28:04;8.38;;;4.30;;
43048;SDS011;28673;44.412;11.918;2023-05-13T09:30:36;8.63;;;4.20;;
43048;SDS011;28673;44.412;11.918;2023-05-13T09:35:40;8.75;;;4.47;;
43048;SDS011;28673;44.412;11.918;2023-05-13T09:38:14;10.63;;;3.97;;
43048;SDS011;28673;44.412;11.918;2023-05-13T09:40:53;4.50;;;3.63;;
43048;SDS011;28673;44.412;11.918;2023-05-13T09:43:22;6.43;;;3.42;;
43048;SDS011;28673;44.412;11.918;2023-05-13T09:45:56;11.02;;;3.90;;
43048;SDS011;28673;44.412;11.918;2023-05-13T09:48:30;6.47;;;3.38;;
43048;SDS011;28673;44.412;11.918;2023-05-13T09:50:57;8.52;;;2.70;;
43048;SDS011;28673;44.412;11.918;2023-05-13T09:53:24;5.80;;;2.17;;
43048;SDS011;28673;44.412;11.918;2023-05-13T09:55:54;4.88;;;3.03;;
43048;SDS011;28673;44.412;11.918;2023-05-13T09:58:21;3.92;;;2.25;;
43048;SDS011;28673;44.412;11.918;2023-05-13T10:00:49;8.13;;;3.10;;
43048;SDS011;28673;44.412;11.918;2023-05-13T10:03:16;3.40;;;2.35;;
43048;SDS011;28673;44.412;11.918;2023-05-13T10:05:42;4.72;;;2.60;;
43048;SDS011;28673;44.412;11.918;2023-05-13T10:08:11;3.10;;;1.83;;
43048;SDS011;28673;44.412;11.918;2023-05-13T10:10:42;4.90;;;2.50;;
43048;SDS011;28673;44.412;11.918;2023-05-13T10:13:12;3.72;;;1.70;;
43048;SDS011;28673;44.412;11.918;2023-05-13T10:15:47;4.30;;;1.70;;
43048;SDS011;28673;44.412;11.918;2023-05-13T10:18:17;6.53;;;2.47;;
43048;SDS011;28673;44.412;11.918;2023-05-13T10:20:44;3.70;;;2.15;;
43048;SDS011;28673;44.412;11.918;2023-05-13T10:23:11;2.97;;;1.90;;
43048;SDS011;28673;44.412;11.918;2023-05-13T10:25:37;3.95;;;2.22;;
43048;SDS011;28673;44.412;11.918;2023-05-13T10:28:03;2.65;;;2.22;;
43048;SDS011;28673;44.412;11.918;2023-05-13T10:30:30;4.68;;;2.53;;
43048;SDS011;28673;44.412;11.918;2023-05-13T10:32:58;5.85;;;3.15;;
43048;SDS011;28673;44.412;11.918;2023-05-13T10:35:27;6.45;;;2.88;;
43048;SDS011;28673;44.412;11.918;2023-05-13T10:43:14;6.90;;;2.47;;
43048;SDS011;28673;44.412;11.918;2023-05-13T10:45:55;11.52;;;1.40;;
43048;SDS011;28673;44.412;11.918;2023-05-13T10:48:23;4.25;;;1.40;;
43048;SDS011;28673;44.412;11.918;2023-05-13T10:50:56;1.17;;;0.90;;
43048;SDS011;28673;44.412;11.918;2023-05-13T10:53:29;4.20;;;1.10;;
43048;SDS011;28673;44.412;11.918;2023-05-13T10:55:59;2.30;;;0.98;;
43048;SDS011;28673;44.412;11.918;2023-05-13T10:58:28;1.52;;;0.82;;
43048;SDS011;28673;44.412;11.918;2023-05-13T11:04:02;1.45;;;1.30;;
43048;SDS011;28673;44.412;11.918;2023-05-13T11:06:41;13.45;;;1.58;;
43048;SDS011;28673;44.412;11.918;2023-05-13T11:12:04;14.23;;;1.95;;
43048;SDS011;28673;44.412;11.918;2023-05-13T11:14:31;7.38;;;1.20;;
43048;SDS011;28673;44.412;11.918;2023-05-13T11:19:36;3.80;;;1.20;;
43048;SDS011;28673;44.412;11.918;2023-05-13T11:24:39;6.30;;;1.60;;
43048;SDS011;28673;44.412;11.918;2023-05-13T11:27:18;2.22;;;1.05;;
43048;SDS011;28673;44.412;11.918;2023-05-13T11:29:49;7.43;;;1.30;;
43048;SDS011;28673;44.412;11.918;2023-05-13T11:35:25;5.90;;;1.42;;
43048;SDS011;28673;44.412;11.918;2023-05-13T11:37:52;4.47;;;1.20;;
43048;SDS011;28673;44.412;11.918;2023-05-13T11:40:24;8.15;;;1.50;;
43048;SDS011;28673;44.412;11.918;2023-05-13T11:42:51;9.95;;;1.75;;
43048;SDS011;28673;44.412;11.918;2023-05-13T11:45:18;5.82;;;1.10;;
43048;SDS011;28673;44.412;11.918;2023-05-13T11:47:45;4.13;;;1.20;;
43048;SDS011;28673;44.412;11.918;2023-05-13T11:50:25;4.28;;;1.35;;
43048;SDS011;28673;44.412;11.918;2023-05-13T11:53:01;3.00;;;1.35;;
43048;SDS011;28673;44.412;11.918;2023-05-13T11:55:30;2.58;;;1.23;;
43048;SDS011;28673;44.412;11.918;2023-05-13T11:57:58;3.70;;;1.80;;
43048;SDS011;28673;44.412;11.918;2023-05-13T12:00:30;5.78;;;1.58;;
43048;SDS011;28673;44.412;11.918;2023-05-13T12:03:01;5.53;;;1.67;;
43048;SDS011;28673;44.412;11.918;2023-05-13T12:05:34;6.10;;;1.98;;
43048;SDS011;28673;44.412;11.918;2023-05-13T12:08:01;4.22;;;1.95;;
43048;SDS011;28673;44.412;11.918;2023-05-13T12:10:33;2.00;;;1.20;;
43048;SDS011;28673;44.412;11.918;2023-05-13T12:12:59;4.90;;;1.58;;
43048;SDS011;28673;44.412;11.918;2023-05-13T12:15:31;2.55;;;1.77;;
43048;SDS011;28673;44.412;11.918;2023-05-13T12:17:57;2.65;;;1.30;;
43048;SDS011;28673;44.412;11.918;2023-05-13T12:20:26;8.45;;;2.08;;
43048;SDS011;28673;44.412;11.918;2023-05-13T12:22:53;4.30;;;1.30;;
43048;SDS011;28673;44.412;11.918;2023-05-13T12:28:09;3.25;;;1.65;;
43048;SDS011;28673;44.412;11.918;2023-05-13T12:33:18;2.53;;;1.17;;
43048;SDS011;28673;44.412;11.918;2023-05-13T12:35:50;4.80;;;2.83;;
43048;SDS011;28673;44.412;11.918;2023-05-13T12:38:59;3.60;;;1.85;;
43048;SDS011;28673;44.412;11.918;2023-05-13T12:41:34;5.13;;;1.25;;
43048;SDS011;28673;44.412;11.918;2023-05-13T12:44:03;5.65;;;1.50;;
43048;SDS011;28673;44.412;11.918;2023-05-13T12:46:36;3.33;;;1.50;;
43048;SDS011;28673;44.412;11.918;2023-05-13T12:49:04;8.85;;;1.40;;
43048;SDS011;28673;44.412;11.918;2023-05-13T12:51:30;2.08;;;1.25;;
43048;SDS011;28673;44.412;11.918;2023-05-13T12:53:59;3.92;;;1.55;;
43048;SDS011;28673;44.412;11.918;2023-05-13T12:56:25;5.65;;;1.30;;
43048;SDS011;28673;44.412;11.918;2023-05-13T12:58:52;4.97;;;1.23;;
43048;SDS011;28673;44.412;11.918;2023-05-13T13:01:18;5.78;;;1.88;;
43048;SDS011;28673;44.412;11.918;2023-05-13T13:03:44;5.75;;;1.10;;
43048;SDS011;28673;44.412;11.918;2023-05-13T13:06:11;6.57;;;1.35;;
43048;SDS011;28673;44.412;11.918;2023-05-13T13:08:37;1.77;;;1.20;;
43048;SDS011;28673;44.412;11.918;2023-05-13T13:11:06;3.92;;;1.20;;
43048;SDS011;28673;44.412;11.918;2023-05-13T13:13:33;3.25;;;0.95;;
43048;SDS011;28673;44.412;11.918;2023-05-13T13:15:59;4.57;;;1.30;;
43048;SDS011;28673;44.412;11.918;2023-05-13T13:18:25;7.00;;;1.83;;
43048;SDS011;28673;44.412;11.918;2023-05-13T13:20:51;2.58;;;1.02;;
43048;SDS011;28673;44.412;11.918;2023-05-13T13:23:17;4.10;;;0.88;;
43048;SDS011;28673;44.412;11.918;2023-05-13T13:25:44;2.90;;;0.90;;
43048;SDS011;28673;44.412;11.918;2023-05-13T13:28:10;1.35;;;1.00;;
43048;SDS011;28673;44.412;11.918;2023-05-13T13:30:36;3.45;;;1.35;;
43048;SDS011;28673;44.412;11.918;2023-05-13T13:33:02;2.33;;;0.98;;
43048;SDS011;28673;44.412;11.918;2023-05-13T13:35:28;1.98;;;1.00;;
43048;SDS011;28673;44.412;11.918;2023-05-13T13:37:54;3.00;;;1.20;;
43048;SDS011;28673;44.412;11.918;2023-05-13T13:40:20;1.70;;;1.05;;
43048;SDS011;28673;44.412;11.918;2023-05-13T13:42:46;1.90;;;1.00;;
43048;SDS011;28673;44.412;11.918;2023-05-13T13:45:12;2.58;;;1.10;;
43048;SDS011;28673;44.412;11.918;2023-05-13T13:47:38;3.40;;;0.95;;
43048;SDS011;28673;44.412;11.918;2023-05-13T13:50:05;3.05;;;1.10;;
43048;SDS011;28673;44.412;11.918;2023-05-13T13:52:31;2.38;;;0.88;;
43048;SDS011;28673;44.412;11.918;2023-05-13T13:54:59;1.33;;;0.77;;
43048;SDS011;28673;44.412;11.918;2023-05-13T13:57:25;3.13;;;0.90;;
43048;SDS011;28673;44.412;11.918;2023-05-13T13:59:54;3.60;;;0.82;;
43048;SDS011;28673;44.412;11.918;2023-05-13T14:02:23;9.52;;;1.48;;
43048;SDS011;28673;44.412;11.918;2023-05-13T14:04:49;4.13;;;1.25;;
43048;SDS011;28673;44.412;11.918;2023-05-13T14:07:16;4.75;;;1.65;;
43048;SDS011;28673;44.412;11.918;2023-05-13T14:09:42;3.83;;;1.15;;
43048;SDS011;28673;44.412;11.918;2023-05-13T14:12:08;3.92;;;1.33;;
43048;SDS011;28673;44.412;11.918;2023-05-13T14:14:34;2.30;;;1.45;;
43048;SDS011;28673;44.412;11.918;2023-05-13T14:17:00;3.55;;;1.20;;
43048;SDS011;28673;44.412;11.918;2023-05-13T14:19:25;2.78;;;1.50;;
43048;SDS011;28673;44.412;11.918;2023-05-13T14:21:51;5.38;;;1.85;;
43048;SDS011;28673;44.412;11.918;2023-05-13T14:24:17;3.55;;;1.40;;
43048;SDS011;28673;44.412;11.918;2023-05-13T14:26:43;4.07;;;1.75;;
43048;SDS011;28673;44.412;11.918;2023-05-13T14:29:09;8.13;;;1.90;;
43048;SDS011;28673;44.412;11.918;2023-05-13T14:31:35;4.00;;;2.20;;
43048;SDS011;28673;44.412;11.918;2023-05-13T14:34:01;12.32;;;1.85;;
43048;SDS011;28673;44.412;11.918;2023-05-13T14:36:31;5.93;;;1.85;;
43048;SDS011;28673;44.412;11.918;2023-05-13T14:38:56;5.45;;;1.80;;
43048;SDS011;28673;44.412;11.918;2023-05-13T14:41:23;6.05;;;1.63;;
43048;SDS011;28673;44.412;11.918;2023-05-13T14:43:49;7.85;;;2.42;;
43048;SDS011;28673;44.412;11.918;2023-05-13T14:46:18;5.20;;;2.35;;
43048;SDS011;28673;44.412;11.918;2023-05-13T14:48:44;4.93;;;2.63;;
43048;SDS011;28673;44.412;11.918;2023-05-13T14:51:10;4.53;;;2.50;;
43048;SDS011;28673;44.412;11.918;2023-05-13T14:53:37;7.38;;;3.17;;
43048;SDS011;28673;44.412;11.918;2023-05-13T14:56:04;6.57;;;2.38;;
43048;SDS011;28673;44.412;11.918;2023-05-13T14:58:31;6.25;;;3.13;;